Terminal Aerodrome Forecast
Issued by NWS

Home | Current Version | Previous Version | Text Only | Print | Product List | Glossary On
Versions: 1 2 3 4 5 6 7 8 9 10 11 12 13
123
FTUS45 KFGZ 272320
TAFPGA
TAF
KPGA 272320Z 2800/2824 VRB05KT P6SM SCT110 BKN130
     FM281800 VRB06KT P6SM SCT070 BKN090 PROB30 2818/2824 6SM -TSRA
      BKN070CB=

USA.gov is the U.S. government's official web portal to all federal, state and local government web resources and services.